createdAt,value
2023-02-27T00:04:17.802Z,1.48
2023-02-27T00:09:09.665Z,1.50
2023-02-27T00:14:01.585Z,1.70
2023-02-27T00:18:53.454Z,1.60
2023-02-27T00:23:45.187Z,1.80
2023-02-27T00:28:36.945Z,1.52
2023-02-27T00:33:28.840Z,1.70
2023-02-27T00:38:20.785Z,1.77
2023-02-27T00:43:12.520Z,1.50
2023-02-27T00:48:04.747Z,1.65
2023-02-27T00:52:56.552Z,1.55
2023-02-27T00:57:48.477Z,1.65
2023-02-27T01:02:40.650Z,1.63
2023-02-27T01:07:32.818Z,1.33
2023-02-27T01:12:25.726Z,1.27
2023-02-27T01:17:17.578Z,2.50
2023-02-27T01:22:09.450Z,2.50
2023-02-27T01:27:01.222Z,2.38
2023-02-27T01:31:54.588Z,2.50
2023-02-27T01:36:46.499Z,2.20
2023-02-27T01:41:41.128Z,2.25
2023-02-27T01:46:34.208Z,1.98
2023-02-27T01:51:30.262Z,1.88
2023-02-27T01:56:29.065Z,2.00
2023-02-27T02:01:23.459Z,1.77
2023-02-27T02:06:15.256Z,1.67
2023-02-27T02:11:09.193Z,1.90
2023-02-27T02:16:16.111Z,1.85
2023-02-27T02:21:45.583Z,1.58
2023-02-27T02:26:51.426Z,1.40
2023-02-27T02:32:08.465Z,1.65
2023-02-27T02:37:18.836Z,2.42
2023-02-27T02:42:25.452Z,1.80
2023-02-27T02:47:24.187Z,1.88
2023-02-27T02:52:57.073Z,2.08
2023-02-27T02:58:17.173Z,2.28
2023-02-27T03:03:15.754Z,1.63
2023-02-27T03:08:11.825Z,1.65
2023-02-27T03:13:13.094Z,1.98
2023-02-27T03:18:20.657Z,1.40
2023-02-27T03:23:18.416Z,1.30
2023-02-27T03:28:16.441Z,1.50
2023-02-27T03:33:21.720Z,1.70
2023-02-27T03:38:28.036Z,1.58
2023-02-27T03:43:43.576Z,1.63
2023-02-27T03:48:35.799Z,1.70
2023-02-27T03:53:33.732Z,1.80
2023-02-27T03:58:26.279Z,1.42
2023-02-27T04:03:18.354Z,1.65
2023-02-27T04:08:20.279Z,1.67
2023-02-27T04:13:23.917Z,1.75
2023-02-27T04:18:35.986Z,1.88
2023-02-27T04:23:30.501Z,1.85
2023-02-27T04:28:31.641Z,2.10
2023-02-27T04:33:44.840Z,1.80
2023-02-27T04:38:39.709Z,2.13
2023-02-27T04:43:33.473Z,2.00
2023-02-27T04:48:29.200Z,1.90
2023-02-27T04:53:27.884Z,1.80
2023-02-27T04:58:28.409Z,2.05
2023-02-27T05:03:25.851Z,1.80
2023-02-27T05:08:43.274Z,2.10
2023-02-27T05:13:51.443Z,2.50
2023-02-27T05:18:43.857Z,2.20
2023-02-27T05:24:06.360Z,2.17
2023-02-27T05:29:26.037Z,2.15
2023-02-27T05:34:25.777Z,2.72
2023-02-27T05:39:22.039Z,4.32
2023-02-27T05:44:25.378Z,1.85
2023-02-27T05:49:33.819Z,1.98
2023-02-27T05:54:44.110Z,2.65
2023-02-27T06:00:11.464Z,2.20
2023-02-27T06:05:06.777Z,2.95
2023-02-27T06:09:58.867Z,3.95
2023-02-27T06:14:51.914Z,4.35
2023-02-27T06:19:43.945Z,4.00
2023-02-27T06:24:35.854Z,3.53
2023-02-27T06:29:27.694Z,3.40
2023-02-27T06:34:19.509Z,2.42
2023-02-27T06:39:12.128Z,3.28
2023-02-27T06:44:04.208Z,3.25
2023-02-27T06:48:56.069Z,2.60
2023-02-27T06:53:47.920Z,3.30
2023-02-27T06:58:39.690Z,2.30
2023-02-27T07:03:31.465Z,2.95
2023-02-27T07:08:23.295Z,2.65
2023-02-27T07:13:17.352Z,2.72
2023-02-27T07:18:11.331Z,4.35
2023-02-27T07:23:03.499Z,3.35
2023-02-27T07:27:56.196Z,2.80
2023-02-27T07:32:48.167Z,2.90
2023-02-27T07:37:40.180Z,2.63
2023-02-27T07:42:35.570Z,3.15
2023-02-27T07:47:27.406Z,2.83
2023-02-27T07:52:19.181Z,5.57
2023-02-27T07:57:11.108Z,4.30
2023-02-27T08:02:03.033Z,3.35
2023-02-27T08:06:55.008Z,3.30
2023-02-27T08:11:48.888Z,4.05
2023-02-27T08:16:41.195Z,3.00
2023-02-27T08:21:33.120Z,3.47
2023-02-27T08:26:25.140Z,3.95
2023-02-27T08:31:17.121Z,3.03
2023-02-27T08:36:10.281Z,3.83
2023-02-27T08:41:02.197Z,3.90
2023-02-27T08:45:54.250Z,2.90
2023-02-27T08:50:47.170Z,3.10
2023-02-27T08:55:39.040Z,3.65
2023-02-27T09:00:32.591Z,4.85
2023-02-27T09:05:24.369Z,5.55
2023-02-27T09:10:16.281Z,4.30
2023-02-27T09:15:09.112Z,4.07
2023-02-27T09:20:00.989Z,4.22
2023-02-27T09:24:52.824Z,4.07
2023-02-27T09:29:44.701Z,3.50
2023-02-27T09:34:36.613Z,3.45
2023-02-27T09:39:29.305Z,3.47
2023-02-27T09:44:46.666Z,3.30
2023-02-27T09:49:56.149Z,5.18
2023-02-27T09:54:48.934Z,4.03
2023-02-27T09:59:52.825Z,3.40
2023-02-27T10:04:58.551Z,3.50
2023-02-27T10:09:59.720Z,4.15
2023-02-27T10:15:16.722Z,3.85
2023-02-27T10:20:17.056Z,3.83
2023-02-27T10:25:30.883Z,3.40
2023-02-27T10:30:34.826Z,3.92
2023-02-27T10:35:39.794Z,4.28
2023-02-27T10:40:36.470Z,4.97
2023-02-27T10:45:28.993Z,3.92
2023-02-27T10:50:23.310Z,4.45
2023-02-27T10:55:22.907Z,3.97
2023-02-27T11:00:44.258Z,4.18
2023-02-27T11:05:37.169Z,4.20
2023-02-27T11:10:29.166Z,4.95
2023-02-27T11:15:25.866Z,4.40
2023-02-27T11:20:29.708Z,5.07
2023-02-27T11:25:24.274Z,5.28
2023-02-27T11:30:28.687Z,4.82
2023-02-27T11:35:28.384Z,4.85
2023-02-27T11:40:22.315Z,4.63
2023-02-27T11:46:28.222Z,5.55
2023-02-27T11:50:52.197Z,4.65
2023-02-27T11:55:45.362Z,6.95
2023-02-27T12:00:43.289Z,4.70
2023-02-27T12:05:50.578Z,7.82
2023-02-27T12:11:01.708Z,5.18
2023-02-27T12:16:08.526Z,4.90
2023-02-27T12:21:10.463Z,5.07
2023-02-27T12:26:26.507Z,5.32
2023-02-27T12:31:36.142Z,5.80
2023-02-27T12:36:28.220Z,6.10
2023-02-27T12:41:37.444Z,5.78
2023-02-27T12:46:48.180Z,5.75
2023-02-27T12:51:51.408Z,5.60
2023-02-27T12:56:46.406Z,4.75
2023-02-27T13:01:46.940Z,5.40
2023-02-27T13:06:58.252Z,5.93
2023-02-27T13:11:58.498Z,5.22
2023-02-27T13:17:19.556Z,7.43
2023-02-27T13:22:38.588Z,6.68
2023-02-27T13:27:38.292Z,6.05
2023-02-27T13:32:44.820Z,12.10
2023-02-27T13:37:55.086Z,13.32
2023-02-27T13:42:46.771Z,9.45
2023-02-27T13:47:41.035Z,7.00
2023-02-27T13:52:35.114Z,5.65
2023-02-27T13:57:28.605Z,6.65
2023-02-27T14:02:34.617Z,6.82
2023-02-27T14:07:34.298Z,6.15
2023-02-27T14:12:45.418Z,6.10
2023-02-27T14:17:37.902Z,5.50
2023-02-27T14:22:33.853Z,5.70
2023-02-27T14:27:29.667Z,6.32
2023-02-27T14:32:24.513Z,6.05
2023-02-27T14:37:21.782Z,6.28
2023-02-27T14:42:51.785Z,6.07
2023-02-27T14:47:43.599Z,7.18
2023-02-27T14:52:43.199Z,6.57
2023-02-27T14:57:34.953Z,6.97
2023-02-27T15:02:30.799Z,6.60
2023-02-27T15:07:28.744Z,5.63
2023-02-27T15:12:22.837Z,6.38
2023-02-27T15:17:23.377Z,6.75
2023-02-27T15:22:28.891Z,6.07
2023-02-27T15:27:28.692Z,6.10
2023-02-27T15:32:26.457Z,7.07
2023-02-27T15:37:25.378Z,6.97
2023-02-27T15:42:21.122Z,6.43
2023-02-27T15:47:18.692Z,6.47
2023-02-27T15:55:00.815Z,5.93
2023-02-27T15:59:55.108Z,6.00
2023-02-27T16:04:47.631Z,5.57
2023-02-27T16:09:39.497Z,6.07
2023-02-27T16:14:44.982Z,5.53
2023-02-27T16:19:40.716Z,6.20
2023-02-27T16:24:33.684Z,5.72
2023-02-27T16:29:34.416Z,6.07
2023-02-27T16:34:42.751Z,6.38
2023-02-27T16:39:36.300Z,7.28
2023-02-27T16:44:29.457Z,6.25
2023-02-27T16:49:27.132Z,6.28
2023-02-27T16:54:19.961Z,6.67
2023-02-27T16:59:28.269Z,8.52
2023-02-27T17:04:25.864Z,7.28
2023-02-27T17:09:18.054Z,8.47
2023-02-27T17:14:09.988Z,7.80
2023-02-27T17:19:01.842Z,8.10
2023-02-27T17:23:53.732Z,9.57
2023-02-27T17:28:45.441Z,8.93
2023-02-27T17:33:37.398Z,8.60
2023-02-27T17:38:29.313Z,9.32
2023-02-27T17:43:21.020Z,10.82
2023-02-27T17:48:13.230Z,11.25
2023-02-27T17:53:05.226Z,8.95
2023-02-27T17:57:57.005Z,9.32
2023-02-27T18:02:48.800Z,9.93
2023-02-27T18:07:40.583Z,10.90
2023-02-27T18:12:32.674Z,11.25
2023-02-27T18:17:24.480Z,10.90
2023-02-27T18:22:16.418Z,9.85
2023-02-27T18:27:08.376Z,9.88
2023-02-27T18:32:00.467Z,9.73
2023-02-27T18:36:52.348Z,9.52
2023-02-27T18:41:44.419Z,9.10
2023-02-27T18:46:38.428Z,9.98
2023-02-27T18:51:30.348Z,9.88
2023-02-27T18:56:25.142Z,9.43
2023-02-27T19:01:24.680Z,11.02
2023-02-27T19:06:16.481Z,10.43
2023-02-27T19:11:08.258Z,11.43
2023-02-27T19:16:07.370Z,11.13
2023-02-27T19:21:05.710Z,10.93
2023-02-27T19:26:01.162Z,10.95
2023-02-27T19:30:53.014Z,10.77
2023-02-27T19:35:44.874Z,12.00
2023-02-27T19:40:36.759Z,10.98
2023-02-27T19:45:29.199Z,14.68
2023-02-27T19:50:21.082Z,13.02
2023-02-27T19:55:12.943Z,11.30
2023-02-27T20:00:08.887Z,12.23
2023-02-27T20:05:08.518Z,13.18
2023-02-27T20:10:00.272Z,12.93
2023-02-27T20:14:52.277Z,10.77
2023-02-27T20:19:44.074Z,11.23
2023-02-27T20:24:35.837Z,10.13
2023-02-27T20:29:28.452Z,9.93
2023-02-27T20:34:22.516Z,11.23
2023-02-27T20:39:14.584Z,9.85
2023-02-27T20:44:11.559Z,9.90
2023-02-27T20:49:04.612Z,9.85
2023-02-27T20:53:58.753Z,8.77
2023-02-27T20:58:51.096Z,9.38
2023-02-27T21:03:44.998Z,8.32
2023-02-27T21:08:38.926Z,8.60
2023-02-27T21:13:30.687Z,9.00
2023-02-27T21:18:22.393Z,9.27
2023-02-27T21:23:14.096Z,8.40
2023-02-27T21:28:06.596Z,10.30
2023-02-27T21:32:58.466Z,9.02
2023-02-27T21:37:50.263Z,9.18
2023-02-27T21:42:43.236Z,8.13
2023-02-27T21:47:35.014Z,9.20
2023-02-27T21:52:26.903Z,8.68
2023-02-27T21:57:21.797Z,8.48
2023-02-27T22:02:13.834Z,9.38
2023-02-27T22:07:05.805Z,9.75
2023-02-27T22:11:57.683Z,9.43
2023-02-27T22:16:49.671Z,8.38
2023-02-27T22:21:41.745Z,9.02
2023-02-27T22:26:33.757Z,8.98
2023-02-27T22:31:31.687Z,8.27
2023-02-27T22:36:26.273Z,8.75
2023-02-27T22:41:21.312Z,9.25
2023-02-27T22:46:17.203Z,8.77
2023-02-27T22:51:14.632Z,9.50
2023-02-27T22:56:09.594Z,8.70
2023-02-27T23:01:01.803Z,9.40
2023-02-27T23:05:53.625Z,9.75
2023-02-27T23:10:45.985Z,9.93
2023-02-27T23:15:38.781Z,9.65
2023-02-27T23:20:30.505Z,9.43
2023-02-27T23:25:22.247Z,10.38
2023-02-27T23:30:14.518Z,9.23
2023-02-27T23:35:06.449Z,9.48
2023-02-27T23:39:58.168Z,10.38
2023-02-27T23:44:49.870Z,10.23
2023-02-27T23:49:41.638Z,9.73
2023-02-27T23:54:33.477Z,9.23
2023-02-27T23:59:28.049Z,10.95
